createdAt,value
2023-04-04T00:00:04.243Z,71.03
2023-04-04T00:01:04.284Z,71.34
2023-04-04T00:02:04.189Z,71.66
2023-04-04T00:03:04.214Z,71.59
2023-04-04T00:04:04.233Z,71.45
2023-04-04T00:05:04.208Z,71.17
2023-04-04T00:06:04.156Z,70.65
2023-04-04T00:07:04.163Z,70.65
2023-04-04T00:08:04.170Z,70.23
2023-04-04T00:09:04.106Z,70.75
2023-04-04T00:10:04.084Z,70.86
2023-04-04T00:11:04.098Z,71.07
2023-04-04T00:12:04.084Z,71.28
2023-04-04T00:13:04.058Z,71.69
2023-04-04T00:14:04.062Z,71.17
2023-04-04T00:15:04.101Z,71.28
2023-04-04T00:16:04.077Z,71.28
2023-04-04T00:17:04.042Z,71.48
2023-04-04T00:18:04.233Z,71.38
2023-04-04T00:19:03.970Z,71.07
2023-04-04T00:20:03.923Z,70.86
2023-04-04T00:21:03.947Z,70.97
2023-04-04T00:22:03.977Z,70.86
2023-04-04T00:23:03.985Z,70.97
2023-04-04T00:24:03.866Z,70.75
2023-04-04T00:25:03.913Z,70.54
2023-04-04T00:26:03.894Z,70.44
2023-04-04T00:27:03.902Z,70.86
2023-04-04T00:28:03.875Z,71.59
2023-04-04T00:29:03.837Z,71.59
2023-04-04T00:30:03.806Z,72.00
2023-04-04T00:31:03.789Z,72.24
2023-04-04T00:32:03.799Z,72.34
2023-04-04T00:33:03.830Z,72.14
2023-04-04T00:34:03.774Z,71.93
2023-04-04T00:35:03.770Z,72.14
2023-04-04T00:36:03.774Z,72.45
2023-04-04T00:37:03.760Z,72.55
2023-04-04T00:38:03.712Z,72.66
2023-04-04T00:39:03.689Z,72.90
2023-04-04T00:40:03.732Z,72.90
2023-04-04T00:41:03.684Z,72.80
2023-04-04T00:42:03.698Z,72.69
2023-04-04T00:43:03.665Z,72.49
2023-04-04T00:44:03.663Z,72.80
2023-04-04T00:45:03.656Z,72.59
2023-04-04T00:46:03.632Z,72.07
2023-04-04T00:47:03.686Z,72.38
2023-04-04T00:48:03.619Z,72.28
2023-04-04T00:49:03.627Z,72.28
2023-04-04T00:50:03.568Z,72.69
2023-04-04T00:51:03.671Z,73.00
2023-04-04T00:52:03.541Z,73.11
2023-04-04T00:53:03.629Z,72.80
2023-04-04T00:54:03.554Z,73.00
2023-04-04T00:55:03.513Z,72.28
2023-04-04T00:56:03.483Z,71.97
2023-04-04T00:57:03.524Z,72.49
2023-04-04T00:58:03.471Z,72.49
2023-04-04T00:59:03.523Z,72.17
2023-04-04T01:00:03.507Z,71.86
2023-04-04T01:01:03.532Z,72.28
2023-04-04T01:02:03.429Z,72.07
2023-04-04T01:03:03.438Z,72.28
2023-04-04T01:04:03.420Z,72.38
2023-04-04T01:05:03.432Z,72.49
2023-04-04T01:06:03.362Z,72.07
2023-04-04T01:07:03.408Z,71.65
2023-04-04T01:08:03.313Z,71.97
2023-04-04T01:09:03.314Z,72.49
2023-04-04T01:10:03.328Z,73.00
2023-04-04T01:11:03.350Z,73.11
2023-04-04T01:12:03.279Z,72.38
2023-04-04T01:13:03.278Z,72.07
2023-04-04T01:14:03.267Z,72.28
2023-04-04T01:15:03.296Z,72.59
2023-04-04T01:16:03.241Z,72.80
2023-04-04T01:17:03.448Z,73.00
2023-04-04T01:18:03.217Z,73.00
2023-04-04T01:19:03.174Z,73.32
2023-04-04T01:20:03.143Z,73.56
2023-04-04T01:21:03.188Z,73.56
2023-04-04T01:22:03.145Z,73.66
2023-04-04T01:23:03.143Z,73.97
2023-04-04T01:24:03.131Z,74.08
2023-04-04T01:25:03.096Z,74.18
2023-04-04T01:26:03.094Z,74.39
2023-04-04T01:27:03.080Z,74.60
2023-04-04T01:28:03.113Z,74.29
2023-04-04T01:29:03.073Z,74.29
2023-04-04T01:30:03.010Z,74.08
2023-04-04T01:31:03.044Z,74.29
2023-04-04T01:32:03.027Z,74.29
2023-04-04T01:33:03.047Z,74.39
2023-04-04T01:34:02.986Z,74.29
2023-04-04T01:35:02.990Z,74.39
2023-04-04T01:36:03.056Z,74.39
2023-04-04T01:37:02.992Z,74.29
2023-04-04T01:38:02.947Z,74.29
2023-04-04T01:39:10.993Z,73.97
2023-04-04T01:40:03.607Z,74.29
2023-04-04T01:41:04.689Z,74.29
2023-04-04T01:42:02.908Z,74.43
2023-04-04T01:43:02.880Z,74.63
2023-04-04T01:44:02.853Z,74.84
2023-04-04T01:45:02.834Z,74.84
2023-04-04T01:46:02.831Z,75.05
2023-04-04T01:47:02.828Z,75.15
2023-04-04T01:48:02.802Z,75.05
2023-04-04T01:49:02.808Z,75.46
2023-04-04T01:50:02.761Z,75.50
2023-04-04T01:51:02.761Z,75.71
2023-04-04T01:52:02.742Z,75.71
2023-04-04T01:53:02.765Z,75.50
2023-04-04T01:54:02.720Z,75.40
2023-04-04T01:55:02.757Z,75.71
2023-04-04T01:56:02.698Z,75.81
2023-04-04T01:57:02.752Z,75.60
2023-04-04T01:58:02.652Z,75.81
2023-04-04T01:59:02.664Z,75.71
2023-04-04T02:00:02.656Z,76.02
2023-04-04T02:01:02.644Z,76.43
2023-04-04T02:02:02.638Z,76.54
2023-04-04T02:03:02.693Z,76.86
2023-04-04T02:04:02.635Z,76.89
2023-04-04T02:05:02.586Z,76.68
2023-04-04T02:06:02.612Z,76.54
2023-04-04T02:07:02.556Z,76.43
2023-04-04T02:08:02.668Z,76.33
2023-04-04T02:09:02.530Z,76.33
2023-04-04T02:10:02.535Z,76.23
2023-04-04T02:11:02.523Z,76.12
2023-04-04T02:12:02.514Z,76.02
2023-04-04T02:13:02.525Z,75.71
2023-04-04T02:14:02.482Z,75.40
2023-04-04T02:15:02.512Z,75.50
2023-04-04T02:16:02.565Z,75.40
2023-04-04T02:17:02.480Z,75.60
2023-04-04T02:18:02.500Z,75.81
2023-04-04T02:19:02.412Z,75.71
2023-04-04T02:20:02.395Z,75.71
2023-04-04T02:21:02.357Z,75.29
2023-04-04T02:22:02.368Z,75.40
2023-04-04T02:23:02.351Z,75.29
2023-04-04T02:24:02.335Z,75.40
2023-04-04T02:25:02.330Z,75.71
2023-04-04T02:26:02.329Z,75.81
2023-04-04T02:27:02.302Z,75.81
2023-04-04T02:28:02.356Z,75.81
2023-04-04T02:29:02.249Z,75.71
2023-04-04T02:30:02.305Z,75.29
2023-04-04T02:31:02.281Z,74.87
2023-04-04T02:32:02.260Z,74.77
2023-04-04T02:33:02.242Z,75.09
2023-04-04T02:34:02.221Z,75.19
2023-04-04T02:35:02.218Z,75.09
2023-04-04T02:36:02.199Z,75.29
2023-04-04T02:37:02.164Z,75.01
2023-04-04T02:38:02.201Z,75.22
2023-04-04T02:39:02.140Z,75.74
2023-04-04T02:40:02.124Z,75.74
2023-04-04T02:41:02.098Z,75.64
2023-04-04T02:42:02.100Z,76.06
2023-04-04T02:43:02.090Z,76.06
2023-04-04T02:44:02.090Z,76.16
2023-04-04T02:45:02.069Z,76.37
2023-04-04T02:46:14.454Z,76.68
2023-04-04T02:47:03.062Z,77.10
2023-04-04T02:48:02.065Z,77.10
2023-04-04T02:49:02.018Z,76.72
2023-04-04T02:50:02.024Z,76.61
2023-04-04T02:51:01.996Z,76.72
2023-04-04T02:52:01.999Z,77.13
2023-04-04T02:53:01.985Z,77.23
2023-04-04T02:54:01.933Z,77.34
2023-04-04T02:55:01.937Z,76.82
2023-04-04T02:56:01.930Z,76.78
2023-04-04T02:57:01.908Z,76.78
2023-04-04T02:58:02.040Z,75.95
2023-04-04T02:59:01.934Z,75.12
2023-04-04T03:00:01.858Z,74.91
2023-04-04T03:01:01.945Z,74.39
2023-04-04T03:02:01.865Z,74.07
2023-04-04T03:03:01.921Z,74.29
2023-04-04T03:04:01.948Z,74.29
2023-04-04T03:05:01.804Z,73.76
2023-04-04T03:06:01.819Z,73.35
2023-04-04T03:07:01.781Z,73.55
2023-04-04T03:08:01.809Z,73.76
2023-04-04T03:09:01.791Z,74.18
2023-04-04T03:10:01.740Z,74.07
2023-04-04T03:11:01.707Z,74.39
2023-04-04T03:12:01.712Z,74.39
2023-04-04T03:13:01.769Z,74.60
2023-04-04T03:14:01.708Z,74.60
2023-04-04T03:15:01.660Z,74.91
2023-04-04T03:16:01.652Z,74.91
2023-04-04T03:17:01.673Z,75.12
2023-04-04T03:18:01.718Z,75.43
2023-04-04T03:19:01.601Z,75.85
2023-04-04T03:20:01.621Z,76.06
2023-04-04T03:21:01.603Z,76.20
2023-04-04T03:22:01.617Z,76.51
2023-04-04T03:23:01.613Z,76.61
2023-04-04T03:24:01.584Z,76.51
2023-04-04T03:25:01.575Z,76.51
2023-04-04T03:26:01.551Z,76.61
2023-04-04T03:27:01.494Z,76.72
2023-04-04T03:28:01.589Z,77.03
2023-04-04T03:29:01.501Z,77.03
2023-04-04T03:30:01.509Z,77.13
2023-04-04T03:31:01.469Z,77.13
2023-04-04T03:32:01.526Z,77.13
2023-04-04T03:33:01.477Z,77.17
2023-04-04T03:34:01.423Z,77.17
2023-04-04T03:35:01.411Z,77.37
2023-04-04T03:36:01.425Z,77.06
2023-04-04T03:37:01.422Z,77.27
2023-04-04T03:38:01.389Z,77.58
2023-04-04T03:39:01.408Z,77.48
2023-04-04T03:40:01.386Z,77.48
2023-04-04T03:41:01.327Z,77.58
2023-04-04T03:42:01.336Z,77.48
2023-04-04T03:43:01.348Z,77.69
2023-04-04T03:44:01.320Z,77.80
2023-04-04T03:45:01.301Z,77.80
2023-04-04T03:46:01.357Z,77.90
2023-04-04T03:47:01.250Z,77.90
2023-04-04T03:48:01.330Z,78.21
2023-04-04T03:49:01.238Z,78.14
2023-04-04T03:50:01.262Z,78.31
2023-04-04T03:51:01.228Z,78.52
2023-04-04T03:52:01.191Z,78.52
2023-04-04T03:53:01.232Z,78.52
2023-04-04T03:54:01.175Z,78.42
2023-04-04T03:55:01.180Z,78.45
2023-04-04T03:56:01.156Z,78.21
2023-04-04T03:57:01.123Z,78.35
2023-04-04T03:58:01.157Z,78.35
2023-04-04T03:59:01.153Z,78.25
2023-04-04T04:00:01.113Z,78.25
2023-04-04T04:01:01.080Z,78.04
2023-04-04T04:02:01.070Z,78.14
2023-04-04T04:03:01.148Z,78.04
2023-04-04T04:04:01.090Z,78.25
2023-04-04T04:05:01.078Z,78.45
2023-04-04T04:06:01.023Z,78.35
2023-04-04T04:07:01.020Z,78.35
2023-04-04T04:08:01.049Z,78.35
2023-04-04T04:09:00.976Z,78.35
2023-04-04T04:10:00.950Z,78.66
2023-04-04T04:11:00.968Z,78.97
2023-04-04T04:12:01.002Z,78.97
2023-04-04T04:13:00.914Z,78.97
2023-04-04T04:14:00.901Z,78.87
2023-04-04T04:15:00.917Z,78.87
2023-04-04T04:16:00.945Z,78.77
2023-04-04T04:17:00.881Z,78.87
2023-04-04T04:18:00.963Z,78.97
2023-04-04T04:19:00.868Z,78.45
2023-04-04T04:20:00.896Z,78.56
2023-04-04T04:21:00.840Z,78.97
2023-04-04T04:22:00.806Z,78.94
2023-04-04T04:23:00.829Z,78.83
2023-04-04T04:24:00.813Z,78.45
2023-04-04T04:25:00.789Z,78.31
2023-04-04T04:26:00.791Z,78.25
2023-04-04T04:27:00.750Z,78.14
2023-04-04T04:28:00.815Z,78.14
2023-04-04T04:29:00.712Z,78.04
2023-04-04T04:30:00.732Z,78.04
2023-04-04T04:31:00.695Z,78.25
2023-04-04T04:32:00.908Z,78.45
2023-04-04T04:33:00.720Z,78.45
2023-04-04T04:34:00.689Z,78.56
2023-04-04T04:35:00.628Z,78.35
2023-04-04T04:36:01.954Z,78.45
2023-04-04T04:37:00.656Z,78.45
2023-04-04T04:38:00.635Z,78.25
2023-04-04T04:39:00.600Z,78.04
2023-04-04T04:40:00.629Z,78.35
2023-04-04T04:41:00.587Z,78.91
2023-04-04T04:42:00.545Z,78.59
2023-04-04T04:43:00.565Z,78.66
2023-04-04T04:44:00.543Z,78.56
2023-04-04T04:45:00.500Z,78.70
2023-04-04T04:46:00.538Z,78.70
2023-04-04T04:47:00.551Z,78.80
2023-04-04T04:48:00.523Z,78.80
2023-04-04T04:49:00.588Z,78.80
2023-04-04T04:50:00.489Z,78.70
2023-04-04T04:51:00.445Z,79.01
2023-04-04T04:52:00.420Z,79.11
2023-04-04T04:53:00.438Z,79.11
2023-04-04T04:54:00.427Z,78.91
2023-04-04T04:55:00.384Z,78.91
2023-04-04T04:56:00.373Z,78.80
2023-04-04T04:57:00.359Z,79.11
2023-04-04T04:58:00.364Z,79.43
2023-04-04T04:59:00.373Z,79.22
2023-04-04T05:00:00.383Z,79.43
2023-04-04T05:01:00.363Z,79.53
2023-04-04T05:02:00.384Z,79.64
2023-04-04T05:03:00.281Z,79.74
2023-04-04T05:04:00.318Z,79.74
2023-04-04T05:05:00.230Z,79.53
2023-04-04T05:06:00.269Z,79.43
2023-04-04T05:07:00.244Z,79.64
2023-04-04T05:08:00.233Z,79.64
2023-04-04T05:09:00.246Z,79.33
2023-04-04T05:10:00.217Z,79.43
2023-04-04T05:11:00.197Z,79.64
2023-04-04T05:12:00.200Z,79.85
2023-04-04T05:13:00.163Z,79.74
2023-04-04T05:14:00.154Z,79.64
2023-04-04T05:15:00.170Z,79.64
2023-04-04T05:16:00.131Z,79.74
2023-04-04T05:17:00.137Z,79.64
2023-04-04T05:18:00.169Z,79.53
2023-04-04T05:19:00.096Z,79.64
2023-04-04T05:20:00.139Z,79.85
2023-04-04T05:21:00.108Z,79.74
2023-04-04T05:22:00.100Z,79.74
2023-04-04T05:23:00.026Z,79.85
2023-04-04T05:24:00.035Z,79.85
2023-04-04T05:25:00.019Z,79.85
2023-04-04T05:26:00.002Z,79.64
2023-04-04T05:26:59.999Z,79.64
2023-04-04T05:28:00.031Z,79.53
2023-04-04T05:28:59.978Z,79.43
2023-04-04T05:29:59.962Z,79.43
2023-04-04T05:30:59.901Z,79.43
2023-04-04T05:31:59.951Z,79.53
2023-04-04T05:32:59.940Z,79.64
2023-04-04T05:33:59.899Z,79.64
2023-04-04T05:34:59.871Z,79.33
2023-04-04T05:35:59.945Z,79.43
2023-04-04T05:36:59.848Z,79.64
2023-04-04T05:37:59.838Z,79.74
2023-04-04T05:38:59.787Z,79.74
2023-04-04T05:39:59.790Z,79.85
2023-04-04T05:40:59.786Z,79.95
2023-04-04T05:41:59.821Z,79.95
2023-04-04T05:42:59.770Z,79.85
2023-04-04T05:43:59.759Z,79.85
2023-04-04T05:44:59.778Z,80.05
2023-04-04T05:45:59.747Z,80.05
2023-04-04T05:46:59.718Z,80.05
2023-04-04T05:48:00.771Z,80.05
2023-04-04T05:48:59.674Z,79.95
2023-04-04T05:49:59.695Z,80.05
2023-04-04T05:50:59.688Z,80.05
2023-04-04T05:51:59.664Z,79.95
2023-04-04T05:52:59.627Z,80.16
2023-04-04T05:53:59.647Z,80.05
2023-04-04T05:54:59.610Z,79.95
2023-04-04T05:55:59.604Z,80.05
2023-04-04T05:56:59.581Z,80.27
2023-04-04T05:57:59.614Z,80.05
2023-04-04T05:58:59.585Z,79.85
2023-04-04T05:59:59.546Z,80.16
2023-04-04T06:00:59.553Z,80.27
2023-04-04T06:01:59.565Z,80.23
2023-04-04T06:02:59.665Z,80.05
2023-04-04T06:03:59.536Z,80.05
2023-04-04T06:04:59.507Z,80.16
2023-04-04T06:05:59.531Z,80.05
2023-04-04T06:06:59.448Z,80.02
2023-04-04T06:07:59.454Z,80.16
2023-04-04T06:08:59.455Z,80.05
2023-04-04T06:09:59.460Z,80.02
2023-04-04T06:10:59.385Z,80.02
2023-04-04T06:11:59.440Z,80.02
2023-04-04T06:12:59.390Z,80.02
2023-04-04T06:13:59.410Z,80.02
2023-04-04T06:14:59.374Z,79.81
2023-04-04T06:15:59.340Z,79.60
2023-04-04T06:16:59.343Z,79.60
2023-04-04T06:17:59.406Z,79.60
2023-04-04T06:18:59.325Z,79.36
2023-04-04T06:19:59.339Z,79.15
2023-04-04T06:20:59.302Z,79.25
2023-04-04T06:21:59.276Z,79.46
2023-04-04T06:22:59.281Z,79.67
2023-04-04T06:23:59.253Z,79.67
2023-04-04T06:24:59.256Z,79.67
2023-04-04T06:25:59.230Z,79.77
2023-04-04T06:26:59.215Z,79.98
2023-04-04T06:27:59.178Z,79.88
2023-04-04T06:28:59.254Z,79.57
2023-04-04T06:29:59.145Z,79.46
2023-04-04T06:30:59.177Z,79.46
2023-04-04T06:31:59.124Z,79.43
2023-04-04T06:32:59.174Z,79.01
2023-04-04T06:33:59.145Z,78.07
2023-04-04T06:34:59.132Z,77.86
2023-04-04T06:35:59.113Z,77.72
2023-04-04T06:36:59.108Z,77.72
2023-04-04T06:37:59.085Z,77.51
2023-04-04T06:38:59.099Z,76.68
2023-04-04T06:39:59.020Z,76.43
2023-04-04T06:40:59.084Z,75.81
2023-04-04T06:41:59.025Z,74.77
2023-04-04T06:42:58.988Z,74.53
2023-04-04T06:43:58.986Z,74.21
2023-04-04T06:44:59.000Z,74.01
2023-04-04T06:45:58.933Z,73.77
2023-04-04T06:46:58.991Z,73.35
2023-04-04T06:47:58.954Z,72.72
2023-04-04T06:48:58.901Z,72.10
2023-04-04T06:49:58.907Z,71.55
2023-04-04T06:50:58.963Z,71.03
2023-04-04T06:51:58.899Z,70.92
2023-04-04T06:52:58.884Z,70.92
2023-04-04T06:53:58.860Z,70.72
2023-04-04T06:54:58.856Z,70.51
2023-04-04T06:55:58.829Z,70.27
2023-04-04T06:56:58.838Z,70.37
2023-04-04T06:57:58.810Z,70.17
2023-04-04T06:58:58.873Z,70.37
2023-04-04T06:59:58.778Z,70.06
2023-04-04T07:00:58.802Z,69.64
2023-04-04T07:01:58.741Z,69.92
2023-04-04T07:02:58.795Z,69.71
2023-04-04T07:03:58.727Z,69.09
2023-04-04T07:04:58.741Z,67.85
2023-04-04T07:05:58.681Z,67.43
2023-04-04T07:06:58.675Z,67.12
2023-04-04T07:07:58.682Z,66.88
2023-04-04T07:08:58.727Z,66.88
2023-04-04T07:09:58.660Z,66.88
2023-04-04T07:10:58.632Z,67.71
2023-04-04T07:11:58.607Z,67.58
2023-04-04T07:12:58.629Z,66.75
2023-04-04T07:13:58.621Z,66.33
2023-04-04T07:14:58.581Z,66.22
2023-04-04T07:15:58.573Z,67.06
2023-04-04T07:16:58.561Z,66.09
2023-04-04T07:17:58.598Z,64.85
2023-04-04T07:18:58.575Z,63.92
2023-04-04T07:19:58.515Z,63.92
2023-04-04T07:20:58.507Z,63.47
2023-04-04T07:21:58.508Z,62.54
2023-04-04T07:22:58.508Z,61.91
2023-04-04T07:23:58.463Z,61.81
2023-04-04T07:24:58.496Z,61.26
2023-04-04T07:25:58.485Z,61.26
2023-04-04T07:26:58.461Z,61.05
2023-04-04T07:28:09.489Z,61.26
2023-04-04T07:28:59.416Z,60.53
2023-04-04T07:29:58.376Z,60.30
2023-04-04T07:30:58.416Z,59.89
2023-04-04T07:31:58.453Z,60.51
2023-04-04T07:32:58.443Z,60.41
2023-04-04T07:33:58.349Z,60.38
2023-04-04T07:34:58.324Z,59.86
2023-04-04T07:35:58.350Z,59.14
2023-04-04T07:36:58.319Z,58.62
2023-04-04T07:37:58.311Z,58.41
2023-04-04T07:38:58.300Z,58.00
2023-04-04T07:39:58.290Z,57.87
2023-04-04T07:40:58.270Z,57.97
2023-04-04T07:41:58.280Z,58.69
2023-04-04T07:42:58.238Z,58.59
2023-04-04T07:43:58.289Z,57.97
2023-04-04T07:44:58.190Z,57.14
2023-04-04T07:45:58.208Z,57.87
2023-04-04T07:47:08.686Z,57.04
2023-04-04T07:47:59.190Z,57.32
2023-04-04T07:48:58.191Z,57.63
2023-04-04T07:49:58.125Z,57.73
2023-04-04T07:50:58.159Z,57.73
2023-04-04T07:51:58.156Z,58.15
2023-04-04T07:52:58.105Z,57.84
2023-04-04T07:53:58.101Z,56.81
2023-04-04T07:54:58.098Z,56.29
2023-04-04T07:55:58.034Z,55.46
2023-04-04T07:56:58.070Z,55.46
2023-04-04T07:57:58.027Z,55.15
2023-04-04T07:58:58.097Z,55.35
2023-04-04T07:59:57.989Z,54.84
2023-04-04T08:00:58.001Z,55.25
2023-04-04T08:01:57.991Z,55.15
2023-04-04T08:02:58.094Z,55.35
2023-04-04T08:03:58.093Z,55.05
2023-04-04T08:04:57.967Z,54.01
2023-04-04T08:05:57.965Z,54.40
2023-04-04T08:06:57.945Z,54.19
2023-04-04T08:07:57.929Z,55.54
2023-04-04T08:08:57.903Z,55.74
2023-04-04T08:09:57.872Z,55.33
2023-04-04T08:10:57.879Z,55.33
2023-04-04T08:11:57.871Z,55.62
2023-04-04T08:12:57.866Z,54.50
2023-04-04T08:13:57.869Z,54.82
2023-04-04T08:14:57.831Z,54.09
2023-04-04T08:15:57.821Z,54.09
2023-04-04T08:16:57.804Z,54.50
2023-04-04T08:17:57.866Z,54.71
2023-04-04T08:18:59.542Z,54.58
2023-04-04T08:19:57.740Z,54.27
2023-04-04T08:20:57.737Z,54.58
2023-04-04T08:21:57.747Z,53.96
2023-04-04T08:22:57.742Z,53.86
2023-04-04T08:23:57.693Z,55.41
2023-04-04T08:24:57.684Z,54.68
2023-04-04T08:25:57.684Z,55.20
2023-04-04T08:27:05.289Z,54.68
2023-04-04T08:27:58.701Z,54.27
2023-04-04T08:28:57.645Z,54.55
2023-04-04T08:29:57.620Z,54.55
2023-04-04T08:30:57.630Z,54.25
2023-04-04T08:31:57.580Z,53.13
2023-04-04T08:32:57.636Z,53.13
2023-04-04T08:33:57.566Z,52.72
2023-04-04T08:34:57.590Z,53.44
2023-04-04T08:35:57.566Z,54.25
2023-04-04T08:36:57.530Z,55.07
2023-04-04T08:37:57.518Z,54.76
2023-04-04T08:38:57.498Z,55.28
2023-04-04T08:39:57.456Z,55.07
2023-04-04T08:40:57.482Z,54.25
2023-04-04T08:41:57.435Z,53.83
2023-04-04T08:42:57.511Z,53.83
2023-04-04T08:43:57.425Z,54.43
2023-04-04T08:44:57.432Z,53.29
2023-04-04T08:45:57.403Z,52.78
2023-04-04T08:46:57.420Z,53.19
2023-04-04T08:47:57.418Z,53.50
2023-04-04T08:48:57.595Z,52.47
2023-04-04T08:49:57.355Z,52.47
2023-04-04T08:50:57.363Z,52.98
2023-04-04T08:51:57.349Z,53.19
2023-04-04T08:52:57.338Z,52.47
2023-04-04T08:53:57.298Z,52.15
2023-04-04T08:54:57.319Z,52.47
2023-04-04T08:55:57.254Z,53.39
2023-04-04T08:56:57.275Z,53.50
2023-04-04T08:57:57.345Z,53.81
2023-04-04T08:58:57.360Z,52.57
2023-04-04T08:59:57.336Z,52.26
2023-04-04T09:00:57.260Z,52.78
2023-04-04T09:01:57.311Z,52.88
2023-04-04T09:02:57.650Z,52.67
2023-04-04T09:03:57.216Z,51.74
2023-04-04T09:05:05.376Z,51.64
2023-04-04T09:05:58.190Z,53.70
2023-04-04T09:06:57.158Z,53.29
2023-04-04T09:07:57.130Z,52.57
2023-04-04T09:08:57.164Z,52.98
2023-04-04T09:09:57.104Z,53.70
2023-04-04T09:10:57.101Z,52.26
2023-04-04T09:11:57.097Z,52.05
2023-04-04T09:13:05.152Z,52.47
2023-04-04T09:13:58.052Z,53.06
2023-04-04T09:14:57.055Z,53.06
2023-04-04T09:15:57.054Z,53.99
2023-04-04T09:16:57.043Z,52.78
2023-04-04T09:17:57.036Z,53.27
2023-04-04T09:18:56.991Z,53.68
2023-04-04T09:19:57.041Z,52.75
2023-04-04T09:20:56.987Z,51.72
2023-04-04T09:21:56.970Z,54.19
2023-04-04T09:22:56.957Z,54.50
2023-04-04T09:23:56.950Z,54.69
2023-04-04T09:24:56.926Z,53.03
2023-04-04T09:26:03.850Z,52.83
2023-04-04T09:26:57.935Z,52.62
2023-04-04T09:27:56.853Z,53.24
2023-04-04T09:28:56.968Z,53.03
2023-04-04T09:29:56.910Z,52.73
2023-04-04T09:30:56.872Z,52.73
2023-04-04T09:31:56.914Z,51.39
2023-04-04T09:32:56.840Z,50.48
2023-04-04T09:33:56.841Z,51.39
2023-04-04T09:34:56.810Z,53.03
2023-04-04T09:35:56.786Z,53.01
2023-04-04T09:36:56.765Z,53.22
2023-04-04T09:37:56.736Z,52.91
2023-04-04T09:38:56.715Z,52.58
2023-04-04T09:39:56.716Z,51.75
2023-04-04T09:40:56.740Z,49.91
2023-04-04T09:41:56.667Z,49.40
2023-04-04T09:42:56.693Z,50.25
2023-04-04T09:43:56.648Z,50.25
2023-04-04T09:44:56.659Z,51.46
2023-04-04T09:45:56.659Z,50.54
2023-04-04T09:46:56.649Z,51.26
2023-04-04T09:47:56.634Z,51.57
2023-04-04T09:48:56.614Z,50.33
2023-04-04T09:49:56.586Z,50.95
2023-04-04T09:50:56.615Z,51.98
2023-04-04T09:51:56.550Z,52.19
2023-04-04T09:52:56.539Z,51.98
2023-04-04T09:53:56.549Z,51.87
2023-04-04T09:54:56.882Z,51.26
2023-04-04T09:55:56.606Z,52.26
2023-04-04T09:56:56.496Z,51.75
2023-04-04T09:57:56.463Z,52.68
2023-04-04T09:59:04.000Z,53.30
2023-04-04T09:59:57.532Z,52.16
2023-04-04T10:00:56.462Z,51.03
2023-04-04T10:01:56.451Z,53.19
2023-04-04T10:02:56.504Z,51.21
2023-04-04T10:03:56.428Z,50.80
2023-04-04T10:05:03.541Z,49.87
2023-04-04T10:05:57.374Z,49.66
2023-04-04T10:06:56.392Z,49.56
2023-04-04T10:07:56.346Z,51.00
2023-04-04T10:08:56.412Z,50.49
2023-04-04T10:09:56.338Z,50.08
2023-04-04T10:11:09.521Z,50.62
2023-04-04T10:11:57.321Z,49.07
2023-04-04T10:12:56.290Z,51.23
2023-04-04T10:13:56.300Z,51.75
2023-04-04T10:14:56.258Z,50.62
2023-04-04T10:15:56.263Z,51.10
2023-04-04T10:16:56.261Z,51.00
2023-04-04T10:17:56.278Z,50.08
2023-04-04T10:18:56.225Z,49.87
2023-04-04T10:19:56.227Z,50.80
2023-04-04T10:21:04.700Z,50.49
2023-04-04T10:21:57.155Z,50.08
2023-04-04T10:22:56.150Z,49.56
2023-04-04T10:23:56.149Z,48.86
2023-04-04T10:24:56.167Z,50.10
2023-04-04T10:25:56.161Z,51.03
2023-04-04T10:26:56.138Z,51.03
2023-04-04T10:27:56.072Z,50.90
2023-04-04T10:28:56.111Z,51.00
2023-04-04T10:29:56.089Z,49.95
2023-04-04T10:31:05.834Z,50.26
2023-04-04T10:31:59.337Z,50.88
2023-04-04T10:32:56.087Z,50.57
2023-04-04T10:33:56.048Z,50.44
2023-04-04T10:34:55.988Z,50.24
2023-04-04T10:35:55.994Z,50.24
2023-04-04T10:36:55.961Z,50.65
2023-04-04T10:37:55.990Z,49.62
2023-04-04T10:38:55.954Z,50.34
2023-04-04T10:39:55.934Z,51.57
2023-04-04T10:40:55.911Z,50.85
2023-04-04T10:41:55.924Z,50.52
2023-04-04T10:42:55.889Z,50.03
2023-04-04T10:43:55.904Z,48.90
2023-04-04T10:44:55.856Z,49.31
2023-04-04T10:45:55.949Z,49.80
2023-04-04T10:46:55.880Z,49.70
2023-04-04T10:47:55.851Z,48.16
2023-04-04T10:48:55.834Z,47.66
2023-04-04T10:49:55.810Z,49.10
2023-04-04T10:50:55.792Z,48.90
2023-04-04T10:51:57.204Z,48.18
2023-04-04T10:52:55.761Z,51.16
2023-04-04T10:53:55.756Z,50.62
2023-04-04T10:54:55.898Z,49.29
2023-04-04T10:55:55.759Z,48.98
2023-04-04T10:56:55.771Z,48.26
2023-04-04T10:57:55.743Z,47.74
2023-04-04T10:58:57.663Z,47.23
2023-04-04T10:59:55.692Z,46.82
2023-04-04T11:00:55.737Z,46.41
2023-04-04T11:01:55.651Z,46.43
2023-04-04T11:02:55.834Z,46.43
2023-04-04T11:03:55.650Z,46.73
2023-04-04T11:04:55.597Z,47.87
2023-04-04T11:05:55.595Z,48.07
2023-04-04T11:06:55.637Z,48.77
2023-04-04T11:08:07.698Z,49.29
2023-04-04T11:08:56.585Z,47.74
2023-04-04T11:09:55.563Z,47.74
2023-04-04T11:10:55.518Z,48.16
2023-04-04T11:11:55.554Z,47.95
2023-04-04T11:13:05.703Z,48.05
2023-04-04T11:13:56.535Z,47.72
2023-04-04T11:14:55.455Z,47.00
2023-04-04T11:15:55.477Z,46.51
2023-04-04T11:16:55.493Z,47.23
2023-04-04T11:17:55.544Z,46.51
2023-04-04T11:18:55.455Z,46.20
2023-04-04T11:19:55.437Z,47.00
2023-04-04T11:20:55.414Z,47.20
2023-04-04T11:21:55.443Z,47.20
2023-04-04T11:22:55.439Z,45.36
2023-04-04T11:23:55.365Z,44.64
2023-04-04T11:24:56.732Z,44.56
2023-04-04T11:25:55.375Z,45.28
2023-04-04T11:26:55.365Z,44.76
2023-04-04T11:27:55.441Z,45.17
2023-04-04T11:28:55.360Z,45.79
2023-04-04T11:29:55.291Z,46.41
2023-04-04T11:30:55.289Z,47.23
2023-04-04T11:31:55.382Z,46.20
2023-04-04T11:33:05.988Z,46.48
2023-04-04T11:33:56.275Z,46.48
2023-04-04T11:34:55.197Z,48.32
2023-04-04T11:35:55.252Z,47.29
2023-04-04T11:36:55.209Z,48.09
2023-04-04T11:37:55.201Z,46.34
2023-04-04T11:38:55.228Z,45.52
2023-04-04T11:39:55.163Z,45.93
2023-04-04T11:40:55.199Z,46.96
2023-04-04T11:41:55.204Z,46.75
2023-04-04T11:42:55.160Z,45.62
2023-04-04T11:43:55.156Z,46.55
2023-04-04T11:44:55.104Z,46.14
2023-04-04T11:45:55.146Z,44.29
2023-04-04T11:46:55.048Z,43.48
2023-04-04T11:47:55.068Z,43.59
2023-04-04T11:48:55.067Z,44.62
2023-04-04T11:49:55.048Z,45.54
2023-04-04T11:50:54.994Z,45.21
2023-04-04T11:51:54.995Z,43.57
2023-04-04T11:52:54.971Z,43.26
2023-04-04T11:53:54.971Z,43.77
2023-04-04T11:54:54.990Z,44.90
2023-04-04T11:55:55.001Z,44.90
2023-04-04T11:56:54.940Z,44.70
2023-04-04T11:57:54.932Z,44.80
2023-04-04T11:59:08.743Z,45.31
2023-04-04T11:59:55.967Z,45.72
2023-04-04T12:00:54.897Z,45.93
2023-04-04T12:01:54.890Z,45.10
2023-04-04T12:02:54.946Z,44.88
2023-04-04T12:03:54.874Z,44.78
2023-04-04T12:04:54.858Z,44.06
2023-04-04T12:05:54.887Z,44.68
2023-04-04T12:06:54.848Z,44.26
2023-04-04T12:07:54.830Z,43.96
2023-04-04T12:08:54.791Z,42.42
2023-04-04T12:09:56.236Z,42.54
2023-04-04T12:10:54.772Z,43.05
2023-04-04T12:11:54.766Z,43.36
2023-04-04T12:12:54.748Z,42.97
2023-04-04T12:13:54.747Z,43.38
2023-04-04T12:15:00.249Z,43.79
2023-04-04T12:15:56.229Z,43.59
2023-04-04T12:16:54.659Z,43.48
2023-04-04T12:17:54.712Z,44.62
2023-04-04T12:18:54.654Z,44.92
2023-04-04T12:19:54.666Z,46.03
2023-04-04T12:20:54.625Z,44.80
2023-04-04T12:21:54.607Z,44.70
2023-04-04T12:22:54.576Z,43.57
2023-04-04T12:23:54.584Z,43.38
2023-04-04T12:24:54.564Z,44.20
2023-04-04T12:25:54.549Z,45.85
2023-04-04T12:26:54.553Z,44.62
2023-04-04T12:27:54.519Z,45.03
2023-04-04T12:28:54.502Z,45.43
2023-04-04T12:29:54.492Z,46.06
2023-04-04T12:30:54.462Z,46.24
2023-04-04T12:31:54.551Z,45.52
2023-04-04T12:32:54.498Z,46.34
2023-04-04T12:33:54.477Z,46.14
2023-04-04T12:34:54.465Z,47.58
2023-04-04T12:35:54.442Z,45.21
2023-04-04T12:36:54.417Z,45.52
2023-04-04T12:37:54.451Z,44.51
2023-04-04T12:38:54.375Z,45.03
2023-04-04T12:39:55.166Z,45.64
2023-04-04T12:40:54.358Z,45.85
2023-04-04T12:41:54.324Z,45.43
2023-04-04T12:42:54.347Z,45.01
2023-04-04T12:43:54.305Z,45.93
2023-04-04T12:44:54.768Z,47.27
2023-04-04T12:45:54.287Z,46.86
2023-04-04T12:46:54.443Z,45.70
2023-04-04T12:47:54.489Z,45.19
2023-04-04T12:48:54.228Z,45.29
2023-04-04T12:49:54.275Z,45.68
2023-04-04T12:50:54.257Z,45.78
2023-04-04T12:51:54.227Z,45.58